sensor_id;sensor_type;location;lat;lon;timestamp;temperature;humidity
28530;DHT22;15737;49.760;6.632;2023-10-31T00:01:08;10.70;99.90
28530;DHT22;15737;49.760;6.632;2023-10-31T00:03:34;10.70;99.90
28530;DHT22;15737;49.760;6.632;2023-10-31T00:05:59;10.60;99.90
28530;DHT22;15737;49.760;6.632;2023-10-31T00:08:25;10.60;99.90
28530;DHT22;15737;49.760;6.632;2023-10-31T00:10:50;10.50;99.90
28530;DHT22;15737;49.760;6.632;2023-10-31T00:13:16;10.60;99.90
28530;DHT22;15737;49.760;6.632;2023-10-31T00:15:41;10.60;99.90
28530;DHT22;15737;49.760;6.632;2023-10-31T00:18:07;10.60;99.90
28530;DHT22;15737;49.760;6.632;2023-10-31T00:20:32;10.60;99.90
28530;DHT22;15737;49.760;6.632;2023-10-31T00:22:58;10.50;99.90
28530;DHT22;15737;49.760;6.632;2023-10-31T00:27:54;10.50;99.90
28530;DHT22;15737;49.760;6.632;2023-10-31T00:30:19;10.40;99.90
28530;DHT22;15737;49.760;6.632;2023-10-31T00:32:45;10.40;99.90
28530;DHT22;15737;49.760;6.632;2023-10-31T00:35:10;10.40;99.90
28530;DHT22;15737;49.760;6.632;2023-10-31T00:37:38;10.40;99.90
28530;DHT22;15737;49.760;6.632;2023-10-31T00:40:06;10.40;99.90
28530;DHT22;15737;49.760;6.632;2023-10-31T00:42:31;10.50;99.90
28530;DHT22;15737;49.760;6.632;2023-10-31T00:44:57;10.50;99.90
28530;DHT22;15737;49.760;6.632;2023-10-31T00:47:22;10.60;99.90
28530;DHT22;15737;49.760;6.632;2023-10-31T00:49:48;10.60;99.90
28530;DHT22;15737;49.760;6.632;2023-10-31T00:52:13;10.60;99.90
28530;DHT22;15737;49.760;6.632;2023-10-31T00:54:39;10.60;99.90
28530;DHT22;15737;49.760;6.632;2023-10-31T00:57:04;10.60;99.90
28530;DHT22;15737;49.760;6.632;2023-10-31T00:59:30;10.60;99.90
28530;DHT22;15737;49.760;6.632;2023-10-31T01:01:55;10.60;99.90
28530;DHT22;15737;49.760;6.632;2023-10-31T01:04:21;10.50;99.90
28530;DHT22;15737;49.760;6.632;2023-10-31T01:06:46;10.50;99.90
28530;DHT22;15737;49.760;6.632;2023-10-31T01:09:12;10.40;99.90
28530;DHT22;15737;49.760;6.632;2023-10-31T01:11:38;10.20;99.90
28530;DHT22;15737;49.760;6.632;2023-10-31T01:14:04;10.20;99.90
28530;DHT22;15737;49.760;6.632;2023-10-31T01:16:29;10.20;99.90
28530;DHT22;15737;49.760;6.632;2023-10-31T01:18:55;10.30;99.90
28530;DHT22;15737;49.760;6.632;2023-10-31T01:21:20;10.30;99.90
28530;DHT22;15737;49.760;6.632;2023-10-31T01:23:46;10.30;99.90
28530;DHT22;15737;49.760;6.632;2023-10-31T01:26:11;10.30;99.90
28530;DHT22;15737;49.760;6.632;2023-10-31T01:28:37;10.30;99.90
28530;DHT22;15737;49.760;6.632;2023-10-31T01:31:03;10.30;99.90
28530;DHT22;15737;49.760;6.632;2023-10-31T01:33:28;10.40;99.90
28530;DHT22;15737;49.760;6.632;2023-10-31T01:35:54;10.40;99.90
28530;DHT22;15737;49.760;6.632;2023-10-31T01:38:19;10.50;99.90
28530;DHT22;15737;49.760;6.632;2023-10-31T01:40:49;10.40;99.90
28530;DHT22;15737;49.760;6.632;2023-10-31T01:43:29;10.50;99.90
28530;DHT22;15737;49.760;6.632;2023-10-31T01:45:55;10.50;99.90
28530;DHT22;15737;49.760;6.632;2023-10-31T01:48:20;10.50;99.90
28530;DHT22;15737;49.760;6.632;2023-10-31T01:50:46;10.50;99.90
28530;DHT22;15737;49.760;6.632;2023-10-31T01:53:12;10.60;99.90
28530;DHT22;15737;49.760;6.632;2023-10-31T01:55:37;10.50;99.90
28530;DHT22;15737;49.760;6.632;2023-10-31T02:00:33;10.50;99.90
28530;DHT22;15737;49.760;6.632;2023-10-31T02:02:59;10.50;99.90
28530;DHT22;15737;49.760;6.632;2023-10-31T02:05:28;10.60;99.90
28530;DHT22;15737;49.760;6.632;2023-10-31T02:07:54;10.50;99.90
28530;DHT22;15737;49.760;6.632;2023-10-31T02:10:20;10.60;99.90
28530;DHT22;15737;49.760;6.632;2023-10-31T02:12:45;10.50;99.90
28530;DHT22;15737;49.760;6.632;2023-10-31T02:15:11;10.50;99.90
28530;DHT22;15737;49.760;6.632;2023-10-31T02:17:36;10.60;99.90
28530;DHT22;15737;49.760;6.632;2023-10-31T02:20:02;10.60;99.90
28530;DHT22;15737;49.760;6.632;2023-10-31T02:22:28;10.60;99.90
28530;DHT22;15737;49.760;6.632;2023-10-31T02:24:53;10.60;99.90
28530;DHT22;15737;49.760;6.632;2023-10-31T02:27:19;10.60;99.90
28530;DHT22;15737;49.760;6.632;2023-10-31T02:29:44;10.60;99.90
28530;DHT22;15737;49.760;6.632;2023-10-31T02:32:10;10.60;99.90
28530;DHT22;15737;49.760;6.632;2023-10-31T02:34:35;10.50;99.90
28530;DHT22;15737;49.760;6.632;2023-10-31T02:37:01;10.40;99.90
28530;DHT22;15737;49.760;6.632;2023-10-31T02:39:26;10.30;99.90
28530;DHT22;15737;49.760;6.632;2023-10-31T02:41:52;10.30;99.90
28530;DHT22;15737;49.760;6.632;2023-10-31T02:44:17;10.30;99.90
28530;DHT22;15737;49.760;6.632;2023-10-31T02:46:43;10.30;99.90
28530;DHT22;15737;49.760;6.632;2023-10-31T02:49:09;10.30;99.90
28530;DHT22;15737;49.760;6.632;2023-10-31T02:51:35;10.30;99.90
28530;DHT22;15737;49.760;6.632;2023-10-31T02:54:00;10.30;99.90
28530;DHT22;15737;49.760;6.632;2023-10-31T02:56:26;10.30;99.90
28530;DHT22;15737;49.760;6.632;2023-10-31T02:58:51;10.40;99.90
28530;DHT22;15737;49.760;6.632;2023-10-31T03:01:17;10.30;99.90
28530;DHT22;15737;49.760;6.632;2023-10-31T03:03:45;10.30;99.90
28530;DHT22;15737;49.760;6.632;2023-10-31T03:06:10;10.40;99.90
28530;DHT22;15737;49.760;6.632;2023-10-31T03:08:36;10.40;99.90
28530;DHT22;15737;49.760;6.632;2023-10-31T03:11:02;10.40;99.90
28530;DHT22;15737;49.760;6.632;2023-10-31T03:13:27;10.40;99.90
28530;DHT22;15737;49.760;6.632;2023-10-31T03:15:53;10.40;99.90
28530;DHT22;15737;49.760;6.632;2023-10-31T03:18:18;10.40;99.90
28530;DHT22;15737;49.760;6.632;2023-10-31T03:20:45;10.40;99.90
28530;DHT22;15737;49.760;6.632;2023-10-31T03:23:11;10.40;99.90
28530;DHT22;15737;49.760;6.632;2023-10-31T03:25:37;10.40;99.90
28530;DHT22;15737;49.760;6.632;2023-10-31T03:28:03;10.40;99.90
28530;DHT22;15737;49.760;6.632;2023-10-31T03:30:28;10.40;99.90
28530;DHT22;15737;49.760;6.632;2023-10-31T03:32:54;10.40;99.90
28530;DHT22;15737;49.760;6.632;2023-10-31T03:35:19;10.40;99.90
28530;DHT22;15737;49.760;6.632;2023-10-31T03:37:45;10.40;99.90
28530;DHT22;15737;49.760;6.632;2023-10-31T03:40:11;10.40;99.90
28530;DHT22;15737;49.760;6.632;2023-10-31T03:42:36;10.40;99.90
28530;DHT22;15737;49.760;6.632;2023-10-31T03:45:02;10.30;99.90
28530;DHT22;15737;49.760;6.632;2023-10-31T03:47:27;10.30;99.90
28530;DHT22;15737;49.760;6.632;2023-10-31T03:49:53;10.30;99.90
28530;DHT22;15737;49.760;6.632;2023-10-31T03:52:18;10.30;99.90
28530;DHT22;15737;49.760;6.632;2023-10-31T03:54:45;10.30;99.90
28530;DHT22;15737;49.760;6.632;2023-10-31T03:57:10;10.20;99.90
28530;DHT22;15737;49.760;6.632;2023-10-31T03:59:37;10.20;99.90
28530;DHT22;15737;49.760;6.632;2023-10-31T04:02:03;10.20;99.90
28530;DHT22;15737;49.760;6.632;2023-10-31T04:04:30;10.20;99.90
28530;DHT22;15737;49.760;6.632;2023-10-31T04:06:55;10.20;99.90
28530;DHT22;15737;49.760;6.632;2023-10-31T04:09:21;10.20;99.90
28530;DHT22;15737;49.760;6.632;2023-10-31T04:11:46;10.20;99.90
28530;DHT22;15737;49.760;6.632;2023-10-31T04:14:12;10.10;99.90
28530;DHT22;15737;49.760;6.632;2023-10-31T04:16:41;10.10;99.90
28530;DHT22;15737;49.760;6.632;2023-10-31T04:19:14;10.10;99.90
28530;DHT22;15737;49.760;6.632;2023-10-31T04:21:39;10.20;99.90
28530;DHT22;15737;49.760;6.632;2023-10-31T04:24:05;10.20;99.90
28530;DHT22;15737;49.760;6.632;2023-10-31T04:26:31;10.20;99.90
28530;DHT22;15737;49.760;6.632;2023-10-31T04:28:56;10.20;99.90
28530;DHT22;15737;49.760;6.632;2023-10-31T04:31:22;10.20;99.90
28530;DHT22;15737;49.760;6.632;2023-10-31T04:33:47;10.20;99.90
28530;DHT22;15737;49.760;6.632;2023-10-31T04:36:13;10.20;99.90
28530;DHT22;15737;49.760;6.632;2023-10-31T04:38:38;10.20;99.90
28530;DHT22;15737;49.760;6.632;2023-10-31T04:41:04;10.20;99.90
28530;DHT22;15737;49.760;6.632;2023-10-31T04:43:29;10.20;99.90
28530;DHT22;15737;49.760;6.632;2023-10-31T04:45:55;10.20;99.90
28530;DHT22;15737;49.760;6.632;2023-10-31T04:48:20;10.20;99.90
28530;DHT22;15737;49.760;6.632;2023-10-31T04:50:46;10.10;99.90
28530;DHT22;15737;49.760;6.632;2023-10-31T04:53:11;10.10;99.90
28530;DHT22;15737;49.760;6.632;2023-10-31T04:55:37;10.10;99.90
28530;DHT22;15737;49.760;6.632;2023-10-31T04:58:03;10.10;99.90
28530;DHT22;15737;49.760;6.632;2023-10-31T05:00:28;10.10;99.90
28530;DHT22;15737;49.760;6.632;2023-10-31T05:02:54;10.10;99.90
28530;DHT22;15737;49.760;6.632;2023-10-31T05:05:21;10.00;99.90
28530;DHT22;15737;49.760;6.632;2023-10-31T05:07:47;10.00;99.90
28530;DHT22;15737;49.760;6.632;2023-10-31T05:10:12;10.00;99.90
28530;DHT22;15737;49.760;6.632;2023-10-31T05:12:38;10.00;99.90
28530;DHT22;15737;49.760;6.632;2023-10-31T05:15:04;10.10;99.90
28530;DHT22;15737;49.760;6.632;2023-10-31T05:17:30;10.10;99.90
28530;DHT22;15737;49.760;6.632;2023-10-31T05:19:55;10.00;99.90
28530;DHT22;15737;49.760;6.632;2023-10-31T05:22:21;10.00;99.90
28530;DHT22;15737;49.760;6.632;2023-10-31T05:24:46;10.10;99.90
28530;DHT22;15737;49.760;6.632;2023-10-31T05:27:12;10.00;99.90
28530;DHT22;15737;49.760;6.632;2023-10-31T05:29:39;10.00;99.90
28530;DHT22;15737;49.760;6.632;2023-10-31T05:32:04;10.00;99.90
28530;DHT22;15737;49.760;6.632;2023-10-31T05:34:30;10.00;99.90
28530;DHT22;15737;49.760;6.632;2023-10-31T05:36:55;10.00;99.90
28530;DHT22;15737;49.760;6.632;2023-10-31T05:39:21;10.00;99.90
28530;DHT22;15737;49.760;6.632;2023-10-31T05:41:46;10.00;99.90
28530;DHT22;15737;49.760;6.632;2023-10-31T05:44:12;10.00;99.90
28530;DHT22;15737;49.760;6.632;2023-10-31T05:46:40;10.00;99.90
28530;DHT22;15737;49.760;6.632;2023-10-31T05:49:07;10.00;99.90
28530;DHT22;15737;49.760;6.632;2023-10-31T05:51:33;10.00;99.90
28530;DHT22;15737;49.760;6.632;2023-10-31T05:53:59;10.00;99.90
28530;DHT22;15737;49.760;6.632;2023-10-31T05:56:25;9.90;99.90
28530;DHT22;15737;49.760;6.632;2023-10-31T05:58:50;9.90;99.90
28530;DHT22;15737;49.760;6.632;2023-10-31T06:01:16;9.90;99.90
28530;DHT22;15737;49.760;6.632;2023-10-31T06:03:42;9.90;99.90
28530;DHT22;15737;49.760;6.632;2023-10-31T06:06:09;9.90;99.90
28530;DHT22;15737;49.760;6.632;2023-10-31T06:08:35;9.90;99.90
28530;DHT22;15737;49.760;6.632;2023-10-31T06:11:01;9.90;99.90
28530;DHT22;15737;49.760;6.632;2023-10-31T06:13:26;9.90;99.90
28530;DHT22;15737;49.760;6.632;2023-10-31T06:15:53;10.00;99.90
28530;DHT22;15737;49.760;6.632;2023-10-31T06:18:19;10.00;99.90
28530;DHT22;15737;49.760;6.632;2023-10-31T06:20:44;10.00;99.90
28530;DHT22;15737;49.760;6.632;2023-10-31T06:23:10;10.00;99.90
28530;DHT22;15737;49.760;6.632;2023-10-31T06:25:35;10.00;99.90
28530;DHT22;15737;49.760;6.632;2023-10-31T06:28:01;10.00;99.90
28530;DHT22;15737;49.760;6.632;2023-10-31T06:30:26;10.00;99.90
28530;DHT22;15737;49.760;6.632;2023-10-31T06:32:53;10.00;99.90
28530;DHT22;15737;49.760;6.632;2023-10-31T06:35:19;10.10;99.90
28530;DHT22;15737;49.760;6.632;2023-10-31T06:37:44;10.00;99.90
28530;DHT22;15737;49.760;6.632;2023-10-31T06:40:10;10.00;99.90
28530;DHT22;15737;49.760;6.632;2023-10-31T06:42:36;10.00;99.90
28530;DHT22;15737;49.760;6.632;2023-10-31T06:45:02;10.00;99.90
28530;DHT22;15737;49.760;6.632;2023-10-31T06:47:27;10.10;99.90
28530;DHT22;15737;49.760;6.632;2023-10-31T06:49:53;10.00;99.90
28530;DHT22;15737;49.760;6.632;2023-10-31T06:52:18;10.00;99.90
28530;DHT22;15737;49.760;6.632;2023-10-31T06:54:44;10.00;99.90
28530;DHT22;15737;49.760;6.632;2023-10-31T06:57:09;10.10;99.90
28530;DHT22;15737;49.760;6.632;2023-10-31T06:59:35;10.10;99.90
28530;DHT22;15737;49.760;6.632;2023-10-31T07:02:00;10.10;99.90
28530;DHT22;15737;49.760;6.632;2023-10-31T07:04:26;10.10;99.90
28530;DHT22;15737;49.760;6.632;2023-10-31T07:09:21;10.00;99.90
28530;DHT22;15737;49.760;6.632;2023-10-31T07:11:46;10.00;99.90
28530;DHT22;15737;49.760;6.632;2023-10-31T07:14:12;9.90;99.90
28530;DHT22;15737;49.760;6.632;2023-10-31T07:16:37;9.90;99.90
28530;DHT22;15737;49.760;6.632;2023-10-31T07:19:03;9.90;99.90
28530;DHT22;15737;49.760;6.632;2023-10-31T07:21:28;9.90;99.90
28530;DHT22;15737;49.760;6.632;2023-10-31T07:23:54;9.90;99.90
28530;DHT22;15737;49.760;6.632;2023-10-31T07:26:21;9.90;99.90
28530;DHT22;15737;49.760;6.632;2023-10-31T07:28:46;9.90;99.90
28530;DHT22;15737;49.760;6.632;2023-10-31T07:31:15;9.90;99.90
28530;DHT22;15737;49.760;6.632;2023-10-31T07:33:40;9.90;99.90
28530;DHT22;15737;49.760;6.632;2023-10-31T07:36:06;9.90;99.90
28530;DHT22;15737;49.760;6.632;2023-10-31T07:38:32;10.00;99.90
28530;DHT22;15737;49.760;6.632;2023-10-31T07:40:58;9.90;99.90
28530;DHT22;15737;49.760;6.632;2023-10-31T07:43:24;10.00;99.90
28530;DHT22;15737;49.760;6.632;2023-10-31T07:45:50;10.00;99.90
28530;DHT22;15737;49.760;6.632;2023-10-31T07:48:15;10.10;99.90
28530;DHT22;15737;49.760;6.632;2023-10-31T07:50:41;10.10;99.90
28530;DHT22;15737;49.760;6.632;2023-10-31T07:53:06;10.20;99.90
28530;DHT22;15737;49.760;6.632;2023-10-31T07:55:32;10.20;99.90
28530;DHT22;15737;49.760;6.632;2023-10-31T07:57:57;10.30;99.90
28530;DHT22;15737;49.760;6.632;2023-10-31T08:00:23;10.30;99.90
28530;DHT22;15737;49.760;6.632;2023-10-31T08:02:48;10.40;99.90
28530;DHT22;15737;49.760;6.632;2023-10-31T08:05:14;10.50;99.90
28530;DHT22;15737;49.760;6.632;2023-10-31T08:07:39;10.50;99.90
28530;DHT22;15737;49.760;6.632;2023-10-31T08:10:07;10.60;99.90
28530;DHT22;15737;49.760;6.632;2023-10-31T08:12:47;10.70;99.90
28530;DHT22;15737;49.760;6.632;2023-10-31T08:15:12;10.90;99.90
28530;DHT22;15737;49.760;6.632;2023-10-31T08:17:39;11.10;99.90
28530;DHT22;15737;49.760;6.632;2023-10-31T08:20:05;11.40;99.90
28530;DHT22;15737;49.760;6.632;2023-10-31T08:22:30;11.60;99.90
28530;DHT22;15737;49.760;6.632;2023-10-31T08:24:56;11.90;99.90
28530;DHT22;15737;49.760;6.632;2023-10-31T08:27:21;14.20;99.90
28530;DHT22;15737;49.760;6.632;2023-10-31T08:29:47;16.70;99.90
28530;DHT22;15737;49.760;6.632;2023-10-31T08:32:13;17.70;99.90
28530;DHT22;15737;49.760;6.632;2023-10-31T08:34:38;18.70;99.90
28530;DHT22;15737;49.760;6.632;2023-10-31T08:37:04;19.60;99.90
28530;DHT22;15737;49.760;6.632;2023-10-31T08:39:29;20.60;99.90
28530;DHT22;15737;49.760;6.632;2023-10-31T08:41:57;21.40;99.90
28530;DHT22;15737;49.760;6.632;2023-10-31T08:44:23;20.50;99.90
28530;DHT22;15737;49.760;6.632;2023-10-31T08:46:49;18.60;99.90
28530;DHT22;15737;49.760;6.632;2023-10-31T08:49:15;16.90;99.90
28530;DHT22;15737;49.760;6.632;2023-10-31T08:51:41;15.60;99.90
28530;DHT22;15737;49.760;6.632;2023-10-31T08:54:07;14.60;99.90
28530;DHT22;15737;49.760;6.632;2023-10-31T08:56:32;13.70;99.90
28530;DHT22;15737;49.760;6.632;2023-10-31T08:58:58;13.00;99.90
28530;DHT22;15737;49.760;6.632;2023-10-31T09:01:24;12.50;99.90
28530;DHT22;15737;49.760;6.632;2023-10-31T09:03:50;12.30;99.90
28530;DHT22;15737;49.760;6.632;2023-10-31T09:06:16;12.30;99.90
28530;DHT22;15737;49.760;6.632;2023-10-31T09:08:41;12.20;99.90
28530;DHT22;15737;49.760;6.632;2023-10-31T09:11:07;12.10;99.90
28530;DHT22;15737;49.760;6.632;2023-10-31T09:13:32;12.10;99.90
28530;DHT22;15737;49.760;6.632;2023-10-31T09:15:58;12.30;99.90
28530;DHT22;15737;49.760;6.632;2023-10-31T09:18:24;12.70;99.90
28530;DHT22;15737;49.760;6.632;2023-10-31T09:20:50;13.40;99.90
28530;DHT22;15737;49.760;6.632;2023-10-31T09:23:16;13.80;99.90
28530;DHT22;15737;49.760;6.632;2023-10-31T09:25:45;15.00;99.90
28530;DHT22;15737;49.760;6.632;2023-10-31T09:28:11;16.40;99.90
28530;DHT22;15737;49.760;6.632;2023-10-31T09:30:36;18.60;99.90
28530;DHT22;15737;49.760;6.632;2023-10-31T09:33:02;18.30;99.90
28530;DHT22;15737;49.760;6.632;2023-10-31T09:35:28;18.20;99.90
28530;DHT22;15737;49.760;6.632;2023-10-31T09:37:56;18.00;99.90
28530;DHT22;15737;49.760;6.632;2023-10-31T09:40:23;17.40;99.90
28530;DHT22;15737;49.760;6.632;2023-10-31T09:42:48;18.80;99.90
28530;DHT22;15737;49.760;6.632;2023-10-31T09:45:18;21.00;99.90
28530;DHT22;15737;49.760;6.632;2023-10-31T09:47:43;22.20;99.90
28530;DHT22;15737;49.760;6.632;2023-10-31T09:50:10;21.50;99.90
28530;DHT22;15737;49.760;6.632;2023-10-31T09:52:37;20.30;99.90
28530;DHT22;15737;49.760;6.632;2023-10-31T09:55:03;19.80;99.90
28530;DHT22;15737;49.760;6.632;2023-10-31T09:57:30;19.30;99.90
28530;DHT22;15737;49.760;6.632;2023-10-31T09:59:55;19.20;99.90
28530;DHT22;15737;49.760;6.632;2023-10-31T10:02:21;19.70;99.90
28530;DHT22;15737;49.760;6.632;2023-10-31T10:04:48;18.70;99.90
28530;DHT22;15737;49.760;6.632;2023-10-31T10:07:16;17.30;99.90
28530;DHT22;15737;49.760;6.632;2023-10-31T10:09:43;16.50;99.90
28530;DHT22;15737;49.760;6.632;2023-10-31T10:12:15;16.00;99.90
28530;DHT22;15737;49.760;6.632;2023-10-31T10:14:41;15.20;99.90
28530;DHT22;15737;49.760;6.632;2023-10-31T10:17:23;15.30;99.90
28530;DHT22;15737;49.760;6.632;2023-10-31T10:20:11;15.30;99.90
28530;DHT22;15737;49.760;6.632;2023-10-31T10:22:41;16.10;99.90
28530;DHT22;15737;49.760;6.632;2023-10-31T10:25:14;16.60;99.90
28530;DHT22;15737;49.760;6.632;2023-10-31T10:27:45;16.20;99.90
28530;DHT22;15737;49.760;6.632;2023-10-31T10:30:12;15.50;99.90
28530;DHT22;15737;49.760;6.632;2023-10-31T10:32:38;14.90;99.90
28530;DHT22;15737;49.760;6.632;2023-10-31T10:35:04;14.40;99.90
28530;DHT22;15737;49.760;6.632;2023-10-31T10:37:30;14.00;99.90
28530;DHT22;15737;49.760;6.632;2023-10-31T10:39:56;13.70;99.90
28530;DHT22;15737;49.760;6.632;2023-10-31T10:42:46;13.40;99.90
28530;DHT22;15737;49.760;6.632;2023-10-31T10:45:16;13.30;99.90
28530;DHT22;15737;49.760;6.632;2023-10-31T10:47:49;13.30;99.90
28530;DHT22;15737;49.760;6.632;2023-10-31T10:50:15;13.30;99.90
28530;DHT22;15737;49.760;6.632;2023-10-31T10:52:46;13.20;99.90
28530;DHT22;15737;49.760;6.632;2023-10-31T10:55:20;13.60;99.90
28530;DHT22;15737;49.760;6.632;2023-10-31T10:57:51;14.20;99.90
28530;DHT22;15737;49.760;6.632;2023-10-31T11:00:20;14.30;99.90
28530;DHT22;15737;49.760;6.632;2023-10-31T11:02:51;14.00;99.90
28530;DHT22;15737;49.760;6.632;2023-10-31T11:05:17;13.70;99.90
28530;DHT22;15737;49.760;6.632;2023-10-31T11:07:44;13.60;99.90
28530;DHT22;15737;49.760;6.632;2023-10-31T11:10:11;13.40;99.90
28530;DHT22;15737;49.760;6.632;2023-10-31T11:12:37;13.20;99.90
28530;DHT22;15737;49.760;6.632;2023-10-31T11:15:05;13.10;99.90
28530;DHT22;15737;49.760;6.632;2023-10-31T11:17:34;13.10;99.90
28530;DHT22;15737;49.760;6.632;2023-10-31T11:20:01;13.10;99.90
28530;DHT22;15737;49.760;6.632;2023-10-31T11:22:45;12.90;99.90
28530;DHT22;15737;49.760;6.632;2023-10-31T11:25:21;12.90;99.90
28530;DHT22;15737;49.760;6.632;2023-10-31T11:27:50;13.00;99.90
28530;DHT22;15737;49.760;6.632;2023-10-31T11:32:54;13.60;99.90
28530;DHT22;15737;49.760;6.632;2023-10-31T11:35:21;14.20;99.90
28530;DHT22;15737;49.760;6.632;2023-10-31T11:37:48;15.10;99.90
28530;DHT22;15737;49.760;6.632;2023-10-31T11:40:20;16.90;99.90
28530;DHT22;15737;49.760;6.632;2023-10-31T11:42:51;18.90;99.90
28530;DHT22;15737;49.760;6.632;2023-10-31T11:45:44;19.30;99.90
28530;DHT22;15737;49.760;6.632;2023-10-31T11:48:12;19.50;99.90
28530;DHT22;15737;49.760;6.632;2023-10-31T11:50:38;20.60;99.90
28530;DHT22;15737;49.760;6.632;2023-10-31T11:55:40;18.40;99.90
28530;DHT22;15737;49.760;6.632;2023-10-31T11:58:20;17.60;99.90
28530;DHT22;15737;49.760;6.632;2023-10-31T12:00:51;17.70;99.90
28530;DHT22;15737;49.760;6.632;2023-10-31T12:03:17;17.70;99.90
28530;DHT22;15737;49.760;6.632;2023-10-31T12:05:57;17.40;99.90
28530;DHT22;15737;49.760;6.632;2023-10-31T12:08:27;17.00;99.90
28530;DHT22;15737;49.760;6.632;2023-10-31T12:10:53;16.70;99.90
28530;DHT22;15737;49.760;6.632;2023-10-31T12:13:27;16.50;99.90
28530;DHT22;15737;49.760;6.632;2023-10-31T12:15:53;16.30;99.90
28530;DHT22;15737;49.760;6.632;2023-10-31T12:18:19;16.70;99.90
28530;DHT22;15737;49.760;6.632;2023-10-31T12:20:51;17.20;99.90
28530;DHT22;15737;49.760;6.632;2023-10-31T12:23:18;17.10;99.90
28530;DHT22;15737;49.760;6.632;2023-10-31T12:25:51;16.60;99.90
28530;DHT22;15737;49.760;6.632;2023-10-31T12:28:24;16.30;99.90
28530;DHT22;15737;49.760;6.632;2023-10-31T12:30:51;15.90;99.90
28530;DHT22;15737;49.760;6.632;2023-10-31T12:33:19;15.40;99.90
28530;DHT22;15737;49.760;6.632;2023-10-31T12:35:45;15.20;99.90
28530;DHT22;15737;49.760;6.632;2023-10-31T12:38:12;15.10;99.90
28530;DHT22;15737;49.760;6.632;2023-10-31T12:40:38;15.20;99.90
28530;DHT22;15737;49.760;6.632;2023-10-31T12:43:04;15.10;99.90
28530;DHT22;15737;49.760;6.632;2023-10-31T12:45:30;15.00;99.90
28530;DHT22;15737;49.760;6.632;2023-10-31T12:48:06;14.90;99.90
28530;DHT22;15737;49.760;6.632;2023-10-31T12:50:33;15.10;99.90
28530;DHT22;15737;49.760;6.632;2023-10-31T12:52:59;15.00;99.90
28530;DHT22;15737;49.760;6.632;2023-10-31T12:55:27;14.80;99.90
28530;DHT22;15737;49.760;6.632;2023-10-31T12:57:54;14.70;99.90
28530;DHT22;15737;49.760;6.632;2023-10-31T13:00:21;14.70;99.90
28530;DHT22;15737;49.760;6.632;2023-10-31T13:03:03;14.60;99.90
28530;DHT22;15737;49.760;6.632;2023-10-31T13:05:29;14.40;99.90
28530;DHT22;15737;49.760;6.632;2023-10-31T13:07:56;14.40;99.90
28530;DHT22;15737;49.760;6.632;2023-10-31T13:10:27;14.40;99.90
28530;DHT22;15737;49.760;6.632;2023-10-31T13:12:54;14.40;99.90
28530;DHT22;15737;49.760;6.632;2023-10-31T13:15:21;14.20;99.90
28530;DHT22;15737;49.760;6.632;2023-10-31T13:17:51;14.00;99.90
28530;DHT22;15737;49.760;6.632;2023-10-31T13:20:18;14.10;99.90
28530;DHT22;15737;49.760;6.632;2023-10-31T13:22:45;14.40;99.90
28530;DHT22;15737;49.760;6.632;2023-10-31T13:25:12;14.70;99.90
28530;DHT22;15737;49.760;6.632;2023-10-31T13:27:43;14.90;99.90
28530;DHT22;15737;49.760;6.632;2023-10-31T13:30:09;15.40;99.90
28530;DHT22;15737;49.760;6.632;2023-10-31T13:32:39;16.00;99.90
28530;DHT22;15737;49.760;6.632;2023-10-31T13:35:06;16.50;99.90
28530;DHT22;15737;49.760;6.632;2023-10-31T13:37:31;16.60;99.90
28530;DHT22;15737;49.760;6.632;2023-10-31T13:39:57;16.50;99.90
28530;DHT22;15737;49.760;6.632;2023-10-31T13:42:22;16.10;99.90
28530;DHT22;15737;49.760;6.632;2023-10-31T13:44:48;16.20;99.90
28530;DHT22;15737;49.760;6.632;2023-10-31T13:47:14;16.30;99.90
28530;DHT22;15737;49.760;6.632;2023-10-31T13:52:10;16.40;99.90
28530;DHT22;15737;49.760;6.632;2023-10-31T13:54:35;15.90;99.90
28530;DHT22;15737;49.760;6.632;2023-10-31T13:57:01;15.60;99.90
28530;DHT22;15737;49.760;6.632;2023-10-31T13:59:26;15.10;99.90
28530;DHT22;15737;49.760;6.632;2023-10-31T14:01:52;14.80;99.90
28530;DHT22;15737;49.760;6.632;2023-10-31T14:04:18;14.60;99.90
28530;DHT22;15737;49.760;6.632;2023-10-31T14:06:44;14.70;99.90
28530;DHT22;15737;49.760;6.632;2023-10-31T14:09:11;14.60;99.90
28530;DHT22;15737;49.760;6.632;2023-10-31T14:11:37;14.40;99.90
28530;DHT22;15737;49.760;6.632;2023-10-31T14:14:03;14.30;99.90
28530;DHT22;15737;49.760;6.632;2023-10-31T14:16:32;14.30;99.90
28530;DHT22;15737;49.760;6.632;2023-10-31T14:18:58;14.90;99.90
28530;DHT22;15737;49.760;6.632;2023-10-31T14:21:24;15.20;99.90
28530;DHT22;15737;49.760;6.632;2023-10-31T14:23:51;15.30;99.90
28530;DHT22;15737;49.760;6.632;2023-10-31T14:26:20;15.30;99.90
28530;DHT22;15737;49.760;6.632;2023-10-31T14:28:46;15.00;99.90
28530;DHT22;15737;49.760;6.632;2023-10-31T14:31:12;14.70;99.90
28530;DHT22;15737;49.760;6.632;2023-10-31T14:33:37;14.60;99.90
28530;DHT22;15737;49.760;6.632;2023-10-31T14:36:03;14.50;99.90
28530;DHT22;15737;49.760;6.632;2023-10-31T14:38:28;14.30;99.90
28530;DHT22;15737;49.760;6.632;2023-10-31T14:40:54;14.10;99.90
28530;DHT22;15737;49.760;6.632;2023-10-31T14:43:19;14.00;99.90
28530;DHT22;15737;49.760;6.632;2023-10-31T14:45:45;13.80;99.90
28530;DHT22;15737;49.760;6.632;2023-10-31T14:48:10;13.60;99.90
28530;DHT22;15737;49.760;6.632;2023-10-31T14:50:36;13.40;99.90
28530;DHT22;15737;49.760;6.632;2023-10-31T14:53:01;13.30;99.90
28530;DHT22;15737;49.760;6.632;2023-10-31T14:55:27;13.30;99.90
28530;DHT22;15737;49.760;6.632;2023-10-31T14:57:53;13.40;99.90
28530;DHT22;15737;49.760;6.632;2023-10-31T15:00:18;13.40;99.90
28530;DHT22;15737;49.760;6.632;2023-10-31T15:02:44;13.40;99.90
28530;DHT22;15737;49.760;6.632;2023-10-31T15:05:09;13.30;99.90
28530;DHT22;15737;49.760;6.632;2023-10-31T15:07:35;13.30;99.90
28530;DHT22;15737;49.760;6.632;2023-10-31T15:10:01;13.30;99.90
28530;DHT22;15737;49.760;6.632;2023-10-31T15:12:28;13.10;99.90
28530;DHT22;15737;49.760;6.632;2023-10-31T15:14:53;13.00;99.90
28530;DHT22;15737;49.760;6.632;2023-10-31T15:17:20;13.00;99.90
28530;DHT22;15737;49.760;6.632;2023-10-31T15:19:45;12.80;99.90
28530;DHT22;15737;49.760;6.632;2023-10-31T15:22:11;12.60;99.90
28530;DHT22;15737;49.760;6.632;2023-10-31T15:24:36;12.40;99.90
28530;DHT22;15737;49.760;6.632;2023-10-31T15:27:02;12.30;99.90
28530;DHT22;15737;49.760;6.632;2023-10-31T15:29:28;12.10;99.90
28530;DHT22;15737;49.760;6.632;2023-10-31T15:31:54;12.00;99.90
28530;DHT22;15737;49.760;6.632;2023-10-31T15:34:21;12.00;99.90
28530;DHT22;15737;49.760;6.632;2023-10-31T15:36:46;12.00;99.90
28530;DHT22;15737;49.760;6.632;2023-10-31T15:39:12;11.80;99.90
28530;DHT22;15737;49.760;6.632;2023-10-31T15:41:37;11.60;99.90
28530;DHT22;15737;49.760;6.632;2023-10-31T15:44:04;11.50;99.90